Time;durP1;ratioP1;P1;durP2;ratioP2;P2;SDS_P1;SDS_P2;PMS_P1;PMS_P2;Temp;Humidity;BMP_temperature;BMP_pressure;BME280_temperature;BME280_humidity;BME280_pressure;Samples;Min_cycle;Max_cycle;Signal;HPM_P1;HPM_P2
2024/01/23 00:01:17;;;;;;;5.40;4.20;;;;;;;2.89;54.20;97351.99;108437;1256;103527;-78
2024/01/23 00:03:49;;;;;;;7.50;4.40;;;;;;;2.90;54.05;97352.96;108453;1257;101547;-77
2024/01/23 00:06:16;;;;;;;9.30;4.20;;;;;;;2.91;54.14;97354.77;108434;1256;100143;-78
2024/01/23 00:08:44;;;;;;;4.90;3.70;;;;;;;2.92;53.90;97353.28;108420;1257;95563;-78
2024/01/23 00:11:12;;;;;;;6.30;4.00;;;;;;;2.94;53.68;97354.08;108473;1261;95620;-77
2024/01/23 00:13:41;;;;;;;9.20;4.40;;;;;;;2.97;53.49;97354.30;108471;1256;103555;-77
2024/01/23 00:16:09;;;;;;;6.20;3.70;;;;;;;3.01;53.48;97351.33;108468;1257;101387;-77
2024/01/23 00:18:36;;;;;;;7.30;4.50;;;;;;;3.01;53.46;97352.08;108453;1256;100054;-77
2024/01/23 00:21:04;;;;;;;6.60;4.00;;;;;;;3.02;53.20;97350.23;108412;1261;95633;-77
2024/01/23 00:23:32;;;;;;;6.80;3.90;;;;;;;3.04;53.07;97349.79;108378;1257;95789;-77
2024/01/23 00:26:00;;;;;;;6.90;4.10;;;;;;;3.06;53.02;97351.20;108471;1258;102566;-77
2024/01/23 00:28:28;;;;;;;7.20;4.40;;;;;;;3.09;52.98;97351.60;108376;1257;100014;-78
2024/01/23 00:30:55;;;;;;;9.80;5.60;;;;;;;3.13;52.75;97348.68;108370;1257;100100;-77
2024/01/23 00:33:23;;;;;;;8.70;5.40;;;;;;;3.17;52.53;97349.41;108383;1257;95559;-77
2024/01/23 00:35:51;;;;;;;9.00;5.70;;;;;;;3.18;52.51;97346.67;108444;1257;95556;-77
2024/01/23 00:38:18;;;;;;;9.40;5.30;;;;;;;3.21;52.70;97344.94;108392;1257;103796;-78
2024/01/23 00:40:46;;;;;;;10.90;5.10;;;;;;;3.22;52.29;97349.05;108342;1257;101737;-77
2024/01/23 00:43:14;;;;;;;12.50;6.50;;;;;;;3.21;52.71;97347.95;108354;1257;100044;-77
2024/01/23 00:45:41;;;;;;;11.40;6.10;;;;;;;3.19;52.86;97348.64;108445;1257;95509;-77
2024/01/23 00:48:09;;;;;;;9.10;5.70;;;;;;;3.22;52.63;97351.95;108468;1257;95965;-77
2024/01/23 00:50:37;;;;;;;9.10;5.50;;;;;;;3.23;52.68;97355.05;108466;1257;103726;-77
2024/01/23 00:53:05;;;;;;;9.70;5.40;;;;;;;3.24;52.89;97359.73;108443;1257;101697;-77
2024/01/23 00:55:32;;;;;;;9.70;6.20;;;;;;;3.24;52.67;97359.89;108407;1257;100051;-77
2024/01/23 00:58:00;;;;;;;10.40;5.90;;;;;;;3.24;52.94;97364.33;108406;1257;95601;-77
2024/01/23 01:00:29;;;;;;;7.90;5.20;;;;;;;3.21;53.11;97353.22;108416;1258;95744;-77
2024/01/23 01:02:57;;;;;;;9.00;5.30;;;;;;;3.18;53.56;97351.48;108443;1256;104018;-78
2024/01/23 01:05:24;;;;;;;9.20;5.20;;;;;;;3.11;54.16;97352.54;108424;1257;101297;-78
2024/01/23 01:07:52;;;;;;;9.00;5.70;;;;;;;3.02;55.81;97353.59;108377;1256;100140;-78
2024/01/23 01:10:20;;;;;;;8.40;5.50;;;;;;;2.89;56.77;97354.98;108390;1257;95523;-78
2024/01/23 01:12:48;;;;;;;9.40;5.60;;;;;;;2.77;57.15;97360.03;108452;1257;95647;-78
2024/01/23 01:15:15;;;;;;;8.90;5.40;;;;;;;2.70;57.35;97368.96;108417;1257;103632;-78
2024/01/23 01:17:43;;;;;;;10.40;5.40;;;;;;;2.63;58.25;97371.44;108455;1257;101620;-78
2024/01/23 01:20:11;;;;;;;11.70;6.10;;;;;;;2.53;59.46;97365.41;108384;1257;100067;-77
2024/01/23 01:22:40;;;;;;;9.10;5.70;;;;;;;2.41;60.22;97366.86;108340;1257;95576;-78
2024/01/23 01:25:08;;;;;;;11.20;5.70;;;;;;;2.28;60.97;97366.63;108404;1257;96021;-79
2024/01/23 01:27:36;;;;;;;6.60;5.00;;;;;;;2.20;60.82;97366.74;108443;1257;103721;-78
2024/01/23 01:30:05;;;;;;;9.10;5.70;;;;;;;2.15;61.98;97363.38;108450;1257;100743;-78
2024/01/23 01:32:32;;;;;;;9.50;6.10;;;;;;;2.13;61.94;97371.45;108404;1256;100128;-79
2024/01/23 01:35:00;;;;;;;10.00;6.20;;;;;;;2.10;61.99;97376.36;108420;1257;95547;-78
2024/01/23 01:37:28;;;;;;;13.60;6.70;;;;;;;2.10;62.03;97381.45;108475;1257;95966;-78
2024/01/23 01:39:55;;;;;;;13.70;6.90;;;;;;;2.09;62.63;97382.86;108367;1256;103607;-78
2024/01/23 01:42:23;;;;;;;11.80;6.60;;;;;;;2.07;62.82;97382.38;108391;1256;102263;-77
2024/01/23 01:44:51;;;;;;;12.80;7.50;;;;;;;2.03;63.18;97382.38;108326;1257;99884;-78
2024/01/23 01:47:19;;;;;;;13.40;6.90;;;;;;;2.01;63.25;97379.64;108302;1257;95599;-79
2024/01/23 01:49:48;;;;;;;14.50;7.60;;;;;;;2.00;63.42;97383.46;108351;1258;96040;-78
2024/01/23 01:52:16;;;;;;;12.70;7.80;;;;;;;1.99;63.72;97381.02;108364;1257;103346;-78
2024/01/23 01:54:46;;;;;;;13.10;7.60;;;;;;;1.98;63.69;97370.36;108376;1257;100365;-78
2024/01/23 01:57:14;;;;;;;16.60;8.70;;;;;;;1.98;63.86;97361.79;108407;1256;100224;-78
2024/01/23 01:59:42;;;;;;;12.60;8.20;;;;;;;1.98;64.10;97361.95;108292;1257;150871;-78
2024/01/23 02:02:12;;;;;;;20.20;10.10;;;;;;;1.98;64.10;97353.63;108382;1258;95947;-79
2024/01/23 02:04:40;;;;;;;13.90;8.60;;;;;;;2.01;64.26;97355.31;108434;1257;103792;-79
2024/01/23 02:07:08;;;;;;;11.50;7.10;;;;;;;2.02;64.54;97357.69;108434;1257;101620;-79
2024/01/23 02:09:36;;;;;;;12.70;7.40;;;;;;;2.00;64.63;97358.80;108398;1257;100152;-78
2024/01/23 02:12:05;;;;;;;12.90;7.20;;;;;;;2.00;64.72;97355.41;108409;1257;95928;-78
2024/01/23 02:14:32;;;;;;;11.90;6.50;;;;;;;2.00;65.07;97352.91;108453;1257;95961;-79
2024/01/23 02:17:00;;;;;;;11.70;7.60;;;;;;;1.99;65.11;97353.77;108417;1257;103818;-79
2024/01/23 02:19:28;;;;;;;12.30;7.80;;;;;;;1.98;65.18;97354.33;108354;1257;101658;-79
2024/01/23 02:21:56;;;;;;;18.40;9.00;;;;;;;1.98;65.53;97351.56;108351;1257;100154;-79
2024/01/23 02:24:23;;;;;;;14.90;8.70;;;;;;;1.96;65.61;97352.05;108353;1256;95545;-79
2024/01/23 02:26:51;;;;;;;13.60;8.30;;;;;;;1.96;65.72;97346.95;108408;1256;96054;-79
2024/01/23 02:29:19;;;;;;;17.80;9.80;;;;;;;1.94;65.79;97345.56;108427;1257;103494;-79
2024/01/23 02:31:46;;;;;;;13.20;7.80;;;;;;;1.94;65.91;97342.06;108481;1256;101717;-80
2024/01/23 02:34:14;;;;;;;13.40;8.20;;;;;;;1.95;66.14;97339.30;108444;1256;100171;-78
2024/01/23 02:36:44;;;;;;;12.80;7.40;;;;;;;1.96;66.25;97339.48;108427;1256;95548;-80
2024/01/23 02:39:12;;;;;;;11.90;7.00;;;;;;;1.99;66.44;97341.86;108408;1257;96049;-79
2024/01/23 02:41:40;;;;;;;13.10;8.40;;;;;;;2.01;66.61;97336.84;108469;1257;103460;-78
2024/01/23 02:44:07;;;;;;;11.80;7.40;;;;;;;2.03;66.71;97335.23;108437;1256;101590;-79
2024/01/23 02:46:35;;;;;;;10.50;7.00;;;;;;;2.04;66.85;97336.34;108414;1256;99060;-79
2024/01/23 02:49:03;;;;;;;8.90;6.50;;;;;;;2.05;66.99;97335.21;108398;1256;95894;-78
2024/01/23 02:51:30;;;;;;;10.90;6.40;;;;;;;2.05;67.32;97333.80;108423;1256;96098;-78
2024/01/23 02:53:59;;;;;;;11.70;6.70;;;;;;;2.04;67.27;97331.70;108428;1257;103744;-80
2024/01/23 02:56:27;;;;;;;11.50;6.80;;;;;;;2.05;67.38;97333.02;108423;1256;101534;-79
2024/01/23 02:58:55;;;;;;;11.10;7.40;;;;;;;2.06;67.54;97333.33;108419;1256;100075;-79
2024/01/23 03:01:22;;;;;;;10.50;6.60;;;;;;;2.06;67.53;97331.48;108334;1257;95580;-79
2024/01/23 03:03:50;;;;;;;10.30;6.10;;;;;;;2.07;67.69;97330.49;108388;1257;97149;-79
2024/01/23 03:06:18;;;;;;;10.60;6.40;;;;;;;2.08;67.78;97333.73;108361;1256;103701;-79
2024/01/23 03:08:45;;;;;;;11.90;7.80;;;;;;;2.09;67.94;97335.07;108476;1256;101611;-79
2024/01/23 03:11:13;;;;;;;12.00;7.30;;;;;;;2.10;68.02;97332.02;108396;1256;100103;-78
2024/01/23 03:13:40;;;;;;;11.10;6.80;;;;;;;2.10;67.96;97330.75;108387;1256;95583;-78
2024/01/23 03:16:08;;;;;;;12.50;7.50;;;;;;;2.09;68.36;97332.44;108394;1256;96055;-79
2024/01/23 03:18:36;;;;;;;10.30;6.80;;;;;;;2.07;68.44;97335.13;108416;1256;103607;-79
2024/01/23 03:21:04;;;;;;;12.00;8.00;;;;;;;2.05;68.53;97333.92;108436;1256;101557;-79
2024/01/23 03:23:31;;;;;;;12.90;7.40;;;;;;;2.04;68.58;97337.98;108418;1256;100269;-78
2024/01/23 03:25:59;;;;;;;9.90;6.40;;;;;;;2.04;68.68;97337.27;108404;1256;95596;-78
2024/01/23 03:28:27;;;;;;;11.30;6.50;;;;;;;2.05;68.70;97339.50;108402;1256;96246;-79
2024/01/23 03:30:55;;;;;;;9.50;6.70;;;;;;;2.04;68.85;97340.42;108408;1256;103802;-79
2024/01/23 03:33:22;;;;;;;9.70;6.80;;;;;;;2.04;68.96;97342.22;108383;1256;101410;-79
2024/01/23 03:35:50;;;;;;;12.00;7.60;;;;;;;2.01;69.08;97340.55;108402;1256;100161;-80
2024/01/23 03:38:18;;;;;;;9.30;6.90;;;;;;;1.98;69.34;97344.84;108294;1257;95821;-78
2024/01/23 03:40:46;;;;;;;9.80;6.20;;;;;;;1.95;69.54;97346.39;108445;1256;96094;-79
2024/01/23 03:43:14;;;;;;;10.10;7.30;;;;;;;1.91;69.60;97350.45;108474;1256;103512;-79
2024/01/23 03:45:41;;;;;;;12.70;7.30;;;;;;;1.88;69.90;97351.19;108429;1256;101697;-79
2024/01/23 03:48:10;;;;;;;12.10;6.80;;;;;;;1.82;70.04;97351.19;108422;1256;98977;-79
2024/01/23 03:50:37;;;;;;;12.30;8.30;;;;;;;1.79;70.38;97352.58;108412;1256;95736;-78
2024/01/23 03:53:05;;;;;;;14.40;7.30;;;;;;;1.77;70.42;97350.34;108357;1257;96011;-78
2024/01/23 03:55:33;;;;;;;11.50;7.40;;;;;;;1.76;70.30;97350.09;108413;1256;102239;-79
2024/01/23 03:58:00;;;;;;;11.20;8.10;;;;;;;1.76;70.44;97344.54;108369;1257;101452;-78
2024/01/23 04:00:29;;;;;;;13.20;7.80;;;;;;;1.77;70.50;97349.44;108373;1256;98837;-80
2024/01/23 04:02:57;;;;;;;12.90;7.40;;;;;;;1.78;70.68;97350.58;108384;1256;95607;-79
2024/01/23 04:05:24;;;;;;;12.30;7.90;;;;;;;1.78;70.74;97350.17;108421;1256;96000;-78
2024/01/23 04:07:52;;;;;;;15.70;8.70;;;;;;;1.79;70.70;97350.42;108411;1257;103720;-79
2024/01/23 04:10:20;;;;;;;15.10;8.60;;;;;;;1.82;70.72;97353.54;108389;1256;101838;-79
2024/01/23 04:12:47;;;;;;;11.30;7.50;;;;;;;1.85;70.83;97359.41;108399;1256;100214;-78
2024/01/23 04:15:15;;;;;;;9.90;6.80;;;;;;;1.88;70.82;97362.56;108391;1256;95666;-79
2024/01/23 04:17:43;;;;;;;11.40;7.80;;;;;;;1.91;70.75;97361.52;108426;1256;96219;-79
2024/01/23 04:20:11;;;;;;;13.20;8.10;;;;;;;1.92;70.77;97365.66;108444;1256;103438;-78
2024/01/23 04:22:38;;;;;;;11.20;7.80;;;;;;;1.93;70.82;97358.60;108401;1256;101654;-78
2024/01/23 04:25:06;;;;;;;11.40;6.60;;;;;;;1.95;70.84;97354.90;108426;1256;99853;-79
2024/01/23 04:27:34;;;;;;;9.30;6.70;;;;;;;1.96;70.76;97354.18;108409;1256;96389;-79
2024/01/23 04:30:02;;;;;;;11.10;7.00;;;;;;;1.97;70.91;97357.12;108407;1256;96019;-78
2024/01/23 04:32:30;;;;;;;11.40;7.40;;;;;;;1.98;70.97;97361.88;108417;1256;103758;-79
2024/01/23 04:34:58;;;;;;;9.50;7.20;;;;;;;1.98;70.97;97360.73;108423;1256;99985;-78
2024/01/23 04:37:25;;;;;;;10.80;6.90;;;;;;;2.01;71.13;97359.60;108363;1256;99930;-78
2024/01/23 04:39:53;;;;;;;14.20;8.70;;;;;;;2.01;71.04;97362.97;108389;1256;95668;-78
2024/01/23 04:42:21;;;;;;;12.30;6.80;;;;;;;2.04;70.99;97358.23;108412;1256;97062;-78
2024/01/23 04:44:49;;;;;;;8.90;6.90;;;;;;;2.06;71.01;97354.40;108447;1256;103431;-78
2024/01/23 04:47:16;;;;;;;9.90;6.70;;;;;;;2.07;71.05;97353.92;108417;1256;100520;-78
2024/01/23 04:49:44;;;;;;;9.30;6.70;;;;;;;2.09;71.17;97354.31;108360;1257;99885;-78
2024/01/23 04:52:12;;;;;;;11.70;8.20;;;;;;;2.08;71.14;97358.10;108353;1257;95543;-78
2024/01/23 04:54:41;;;;;;;11.00;7.10;;;;;;;2.09;71.27;97357.11;108414;1256;96124;-77
2024/01/23 04:57:09;;;;;;;13.10;7.60;;;;;;;2.08;71.21;97358.23;108427;1256;103753;-78
2024/01/23 04:59:36;;;;;;;11.90;8.00;;;;;;;2.08;71.24;97353.00;108422;1256;101589;-78
2024/01/23 05:02:05;;;;;;;13.30;8.20;;;;;;;2.09;71.19;97356.94;108395;1256;100248;-78
2024/01/23 05:04:33;;;;;;;11.10;8.30;;;;;;;2.10;71.21;97363.58;108383;1256;95743;-78
2024/01/23 05:07:01;;;;;;;11.60;7.90;;;;;;;2.10;71.42;97369.60;108438;1256;96084;-78
2024/01/23 05:09:31;;;;;;;12.40;8.80;;;;;;;2.09;71.24;97371.68;108438;1256;103744;-78
2024/01/23 05:11:59;;;;;;;17.00;10.10;;;;;;;2.10;71.29;97377.35;108439;1256;101666;-78
2024/01/23 05:14:27;;;;;;;14.50;8.80;;;;;;;2.11;71.23;97379.06;108374;1256;100158;-77
2024/01/23 05:16:54;;;;;;;11.30;8.00;;;;;;;2.13;71.43;97376.24;108395;1257;95682;-78
2024/01/23 05:19:22;;;;;;;12.70;8.40;;;;;;;2.14;71.35;97372.61;108388;1256;96029;-78
2024/01/23 05:21:50;;;;;;;12.90;8.80;;;;;;;2.15;71.42;97374.63;108425;1256;103775;-77
2024/01/23 05:24:18;;;;;;;12.40;8.40;;;;;;;2.15;71.42;97382.35;108422;1256;101550;-77
2024/01/23 05:26:45;;;;;;;10.90;7.60;;;;;;;2.16;71.35;97389.54;108402;1256;99984;-78
2024/01/23 05:29:13;;;;;;;11.00;7.80;;;;;;;2.17;71.41;97392.89;108343;1256;95633;-77
2024/01/23 05:31:41;;;;;;;12.50;8.70;;;;;;;2.17;71.60;97395.20;108397;1256;96402;-78
2024/01/23 05:34:08;;;;;;;12.60;8.70;;;;;;;2.16;71.45;97393.60;108454;1256;103718;-78
2024/01/23 05:36:36;;;;;;;11.80;8.40;;;;;;;2.19;71.37;97390.87;108436;1256;101326;-78
2024/01/23 05:39:04;;;;;;;13.70;8.10;;;;;;;2.20;71.33;97393.20;108372;1256;98906;-77
2024/01/23 05:41:32;;;;;;;13.30;8.50;;;;;;;2.21;71.52;97393.88;108354;1256;95646;-78
2024/01/23 05:43:59;;;;;;;13.00;8.90;;;;;;;2.22;71.35;97392.55;108414;1257;95989;-78
2024/01/23 05:46:27;;;;;;;17.40;9.40;;;;;;;2.22;71.31;97393.89;108422;1256;103483;-78
2024/01/23 05:48:55;;;;;;;16.50;8.70;;;;;;;2.25;71.21;97394.17;108440;1256;101019;-78
2024/01/23 05:51:22;;;;;;;13.40;8.90;;;;;;;2.26;71.28;97392.28;108441;1256;99917;-78
2024/01/23 05:53:50;;;;;;;17.30;10.20;;;;;;;2.27;71.35;97393.25;108380;1256;96028;-77
2024/01/23 05:56:18;;;;;;;15.80;10.70;;;;;;;2.26;71.18;97397.58;108412;1256;96050;-77
2024/01/23 05:58:45;;;;;;;15.10;9.50;;;;;;;2.28;71.23;97402.48;108395;1257;103844;-77
2024/01/23 06:01:13;;;;;;;15.20;9.10;;;;;;;2.31;71.24;97405.34;108413;1257;101665;-77
2024/01/23 06:03:41;;;;;;;14.90;9.90;;;;;;;2.33;71.29;97407.48;108373;1256;99272;-77
2024/01/23 06:06:09;;;;;;;16.60;10.10;;;;;;;2.32;71.27;97412.37;108374;1256;95709;-77
2024/01/23 06:08:36;;;;;;;17.40;10.00;;;;;;;2.31;71.28;97417.63;108397;1256;96057;-77
2024/01/23 06:11:04;;;;;;;15.50;10.50;;;;;;;2.30;71.25;97413.00;108399;1256;103477;-78
2024/01/23 06:13:32;;;;;;;14.10;9.00;;;;;;;2.29;71.37;97415.33;108394;1256;101593;-77
2024/01/23 06:15:59;;;;;;;12.90;8.90;;;;;;;2.30;71.41;97421.15;108415;1256;100088;-78
2024/01/23 06:18:27;;;;;;;14.80;9.20;;;;;;;2.30;71.47;97423.59;108400;1256;95659;-77
2024/01/23 06:20:55;;;;;;;11.20;8.00;;;;;;;2.31;71.57;97424.62;108406;1256;95946;-77
2024/01/23 06:23:23;;;;;;;14.60;9.40;;;;;;;2.30;71.65;97427.02;108350;1256;102546;-77
2024/01/23 06:25:51;;;;;;;16.70;10.20;;;;;;;2.30;71.59;97423.05;108432;1256;101675;-77
2024/01/23 06:28:19;;;;;;;16.20;9.90;;;;;;;2.34;71.55;97417.54;108424;1256;97833;-77
2024/01/23 06:30:47;;;;;;;14.50;9.30;;;;;;;2.35;71.65;97417.89;108387;1256;95723;-77
2024/01/23 06:33:15;;;;;;;17.10;10.60;;;;;;;2.34;71.63;97421.20;108427;1256;96012;-77
2024/01/23 06:35:43;;;;;;;15.90;9.30;;;;;;;2.35;71.62;97428.41;108432;1256;103739;-77
2024/01/23 06:38:10;;;;;;;14.70;9.70;;;;;;;2.36;71.59;97430.21;108412;1256;101339;-77
2024/01/23 06:40:38;;;;;;;17.20;10.80;;;;;;;2.38;71.66;97424.03;108421;1256;99821;-77
2024/01/23 06:43:06;;;;;;;15.70;10.00;;;;;;;2.39;71.55;97432.07;108376;1256;95648;-77
2024/01/23 06:45:33;;;;;;;14.60;10.00;;;;;;;2.38;71.48;97435.05;108399;1256;95959;-77
2024/01/23 06:48:01;;;;;;;17.80;10.20;;;;;;;2.37;71.46;97440.67;108417;1256;103555;-77
2024/01/23 06:50:30;;;;;;;16.10;9.90;;;;;;;2.38;71.51;97444.64;108429;1256;101208;-77
2024/01/23 06:52:57;;;;;;;17.40;10.60;;;;;;;2.37;71.57;97454.30;108392;1257;100221;-77
2024/01/23 06:55:25;;;;;;;15.80;10.60;;;;;;;2.40;71.60;97460.17;108404;1256;95541;-77
2024/01/23 06:57:53;;;;;;;19.20;10.30;;;;;;;2.44;71.46;97462.95;108417;1256;96037;-77
2024/01/23 07:00:21;;;;;;;21.30;12.30;;;;;;;2.48;71.45;97475.51;108408;1256;103799;-77
2024/01/23 07:02:48;;;;;;;17.60;11.20;;;;;;;2.51;71.33;97481.81;108360;1256;100893;-77
2024/01/23 07:05:16;;;;;;;20.00;12.00;;;;;;;2.52;71.25;97477.98;108324;1257;99906;-78
2024/01/23 07:07:44;;;;;;;19.70;11.40;;;;;;;2.52;71.27;97483.65;108384;1256;95580;-77
2024/01/23 07:10:12;;;;;;;22.40;12.70;;;;;;;2.52;71.23;97489.52;108401;1256;96102;-77
2024/01/23 07:12:40;;;;;;;21.50;13.00;;;;;;;2.51;71.25;97488.88;108455;1256;103471;-77
2024/01/23 07:15:08;;;;;;;21.50;13.30;;;;;;;2.50;71.28;97489.50;108387;1257;101978;-77
2024/01/23 07:17:35;;;;;;;21.40;12.50;;;;;;;2.50;71.28;97492.26;108306;1257;99974;-77
2024/01/23 07:20:04;;;;;;;20.30;12.60;;;;;;;2.48;71.28;97500.04;108410;1256;95582;-78
2024/01/23 07:22:32;;;;;;;21.90;12.30;;;;;;;2.48;71.23;97502.48;108459;1256;95838;-77
2024/01/23 07:25:03;;;;;;;19.70;11.70;;;;;;;2.51;71.27;97509.19;108453;1256;103787;-77
2024/01/23 07:27:32;;;;;;;22.60;13.30;;;;;;;2.50;71.23;97507.85;108398;1256;102092;-77
2024/01/23 07:29:59;;;;;;;22.80;14.10;;;;;;;2.50;71.33;97512.45;108438;1256;100184;-77
2024/01/23 07:32:27;;;;;;;23.00;14.40;;;;;;;2.50;71.30;97516.52;108426;1256;95895;-77
2024/01/23 07:34:55;;;;;;;28.50;15.70;;;;;;;2.50;71.38;97515.95;108458;1256;96090;-77
2024/01/23 07:37:22;;;;;;;31.60;18.80;;;;;;;2.52;71.38;97524.33;108438;1256;103744;-77
2024/01/23 07:39:51;;;;;;;31.10;18.60;;;;;;;2.55;71.38;97526.83;108319;1256;101586;-78
2024/01/23 07:42:19;;;;;;;32.10;17.00;;;;;;;2.61;71.38;97527.36;108415;1256;99902;-78
2024/01/23 07:44:47;;;;;;;36.50;19.10;;;;;;;2.64;71.32;97529.18;108390;1259;96406;-77
2024/01/23 07:47:14;;;;;;;30.60;16.10;;;;;;;2.66;71.35;97533.36;108415;1257;96221;-77
2024/01/23 07:49:42;;;;;;;28.80;16.60;;;;;;;2.69;71.26;97533.82;108405;1256;103782;-77
2024/01/23 07:52:10;;;;;;;25.50;16.00;;;;;;;2.70;71.19;97538.98;108420;1257;101272;-78
2024/01/23 07:54:37;;;;;;;22.50;13.60;;;;;;;2.71;71.20;97541.16;108385;1256;98885;-78
2024/01/23 07:57:05;;;;;;;22.00;14.10;;;;;;;2.70;71.30;97539.66;108413;1256;95799;-78
2024/01/23 07:59:33;;;;;;;27.30;15.80;;;;;;;2.68;71.27;97540.77;108420;1256;96037;-78
2024/01/23 08:02:00;;;;;;;23.50;14.90;;;;;;;2.68;71.38;97545.20;108438;1259;103871;-78
2024/01/23 08:04:28;;;;;;;24.20;15.20;;;;;;;2.68;71.40;97548.50;108366;1256;101601;-77
2024/01/23 08:06:56;;;;;;;19.80;13.60;;;;;;;2.66;71.44;97550.42;108346;1256;100136;-77
2024/01/23 08:09:23;;;;;;;23.90;14.10;;;;;;;2.66;71.49;97552.42;108367;1256;95857;-77
2024/01/23 08:11:52;;;;;;;25.20;14.90;;;;;;;2.66;71.50;97554.39;108356;1256;96026;-77
2024/01/23 08:14:20;;;;;;;26.00;16.50;;;;;;;2.65;71.57;97556.80;108350;1256;103696;-77
2024/01/23 08:16:48;;;;;;;26.70;15.90;;;;;;;2.61;71.80;97560.41;108436;1256;101506;-77
2024/01/23 08:19:16;;;;;;;27.50;15.40;;;;;;;2.58;71.89;97559.23;108350;1256;101495;-77
2024/01/23 08:21:43;;;;;;;26.50;16.60;;;;;;;2.57;72.01;97558.67;108385;1256;95626;-77
2024/01/23 08:24:11;;;;;;;26.00;15.80;;;;;;;2.57;71.88;97560.58;108409;1256;97080;-77
2024/01/23 08:26:39;;;;;;;23.40;15.30;;;;;;;2.58;72.01;97561.04;108429;1256;103719;-78
2024/01/23 08:29:08;;;;;;;30.40;16.70;;;;;;;2.58;72.12;97561.25;108421;1256;101657;-78
2024/01/23 08:31:36;;;;;;;25.60;15.60;;;;;;;2.63;72.21;97565.17;108373;1256;99625;-77
2024/01/23 08:34:04;;;;;;;24.60;15.80;;;;;;;2.73;72.30;97566.79;108413;1256;95572;-77
2024/01/23 08:36:31;;;;;;;23.70;15.40;;;;;;;2.85;72.36;97564.92;108332;1257;96041;-77
2024/01/23 08:38:59;;;;;;;22.80;14.00;;;;;;;2.97;72.32;97564.23;108432;1256;103740;-77
2024/01/23 08:41:27;;;;;;;25.10;14.70;;;;;;;3.04;72.25;97564.98;108441;1256;101663;-77
2024/01/23 08:43:55;;;;;;;26.50;15.60;;;;;;;3.07;72.10;97574.05;108416;1256;100045;-77
2024/01/23 08:46:23;;;;;;;24.10;15.10;;;;;;;3.13;72.00;97581.35;108410;1256;95554;-77
2024/01/23 08:48:51;;;;;;;21.70;14.20;;;;;;;3.24;71.86;97590.23;108382;1256;96960;-77
2024/01/23 08:51:21;;;;;;;21.10;13.90;;;;;;;3.31;71.71;97592.73;108456;1256;103755;-77
2024/01/23 08:53:49;;;;;;;25.40;14.90;;;;;;;3.34;71.63;97596.62;108362;1256;101668;-77
2024/01/23 08:56:21;;;;;;;25.70;14.90;;;;;;;3.41;71.53;97602.30;108408;1256;100204;-77
2024/01/23 08:58:48;;;;;;;18.50;12.00;;;;;;;3.53;71.50;97605.08;108416;1256;95879;-77
2024/01/23 09:01:17;;;;;;;25.50;15.10;;;;;;;3.68;71.50;97603.35;108417;1256;96028;-77
2024/01/23 09:03:45;;;;;;;25.30;15.10;;;;;;;3.80;71.31;97606.79;108421;1256;103553;-77
2024/01/23 09:06:13;;;;;;;23.50;14.00;;;;;;;3.95;71.17;97608.70;108409;1256;101040;-77
2024/01/23 09:08:43;;;;;;;24.60;14.40;;;;;;;4.14;70.96;97607.21;108419;1256;99958;-78
2024/01/23 09:11:11;;;;;;;24.30;14.90;;;;;;;4.36;70.68;97604.23;108366;1256;95595;-78
2024/01/23 09:13:39;;;;;;;26.60;15.00;;;;;;;4.51;70.07;97604.95;108409;1256;95537;-78
2024/01/23 09:16:07;;;;;;;28.30;16.30;;;;;;;4.60;69.95;97601.45;108442;1256;103607;-78
2024/01/23 09:18:35;;;;;;;24.40;14.80;;;;;;;4.70;69.71;97602.25;108418;1256;101413;-78
2024/01/23 09:21:04;;;;;;;29.80;15.50;;;;;;;4.75;69.30;97607.09;108421;1256;99849;-78
2024/01/23 09:23:32;;;;;;;23.30;14.40;;;;;;;4.74;68.99;97611.82;108391;1256;95947;-78
2024/01/23 09:25:59;;;;;;;26.90;16.20;;;;;;;4.74;68.72;97613.30;108420;1256;95993;-77
2024/01/23 09:28:27;;;;;;;28.50;17.00;;;;;;;4.77;68.71;97609.69;108422;1256;103522;-78
2024/01/23 09:30:55;;;;;;;28.50;16.10;;;;;;;4.87;68.79;97604.55;108417;1256;101789;-78
2024/01/23 09:33:22;;;;;;;25.70;15.90;;;;;;;4.93;68.86;97594.34;108418;1256;100122;-78
2024/01/23 09:35:50;;;;;;;28.60;16.50;;;;;;;4.97;68.68;97598.52;108374;1256;95983;-77
2024/01/23 09:38:18;;;;;;;28.30;16.70;;;;;;;4.98;68.51;97592.91;108439;1256;97148;-77
2024/01/23 09:40:51;;;;;;;29.20;15.40;;;;;;;4.97;68.37;97593.02;108439;1256;102549;-78
2024/01/23 09:43:21;;;;;;;34.60;17.00;;;;;;;4.96;68.37;97589.95;108444;1256;101100;-78
2024/01/23 09:45:51;;;;;;;30.80;17.20;;;;;;;4.96;68.39;97585.46;108385;1256;100111;-77
2024/01/23 09:48:19;;;;;;;34.00;19.50;;;;;;;4.96;68.34;97581.31;108407;1256;95577;-77
2024/01/23 09:50:47;;;;;;;31.20;16.90;;;;;;;4.97;68.19;97579.60;108424;1256;96032;-77
2024/01/23 09:53:16;;;;;;;29.70;17.40;;;;;;;4.96;67.99;97579.02;108411;1256;103449;-78
2024/01/23 09:55:44;;;;;;;33.40;17.60;;;;;;;4.95;67.93;97578.50;108380;1256;100090;-77
2024/01/23 09:58:13;;;;;;;27.70;15.40;;;;;;;4.92;67.98;97573.26;108415;1256;100252;-78
2024/01/23 10:00:41;;;;;;;29.20;16.80;;;;;;;4.86;67.89;97581.98;108384;1256;95610;-78
2024/01/23 10:03:09;;;;;;;30.80;18.00;;;;;;;4.84;68.13;97584.63;108402;1256;95998;-77
2024/01/23 10:05:37;;;;;;;34.10;20.10;;;;;;;4.89;68.26;97583.19;108408;1256;103134;-77
2024/01/23 10:08:05;;;;;;;28.70;17.00;;;;;;;4.90;68.34;97583.48;108440;1256;100581;-78
2024/01/23 10:10:36;;;;;;;32.60;17.70;;;;;;;4.91;68.31;97591.77;108392;1256;100030;-78
2024/01/23 10:13:04;;;;;;;25.40;15.00;;;;;;;4.94;68.15;97592.80;108393;1256;96246;-78
2024/01/23 10:15:32;;;;;;;26.00;14.50;;;;;;;4.97;68.31;97596.20;108463;1256;95974;-78
2024/01/23 10:17:59;;;;;;;23.20;14.80;;;;;;;4.97;68.10;97594.29;108427;1256;103463;-78
2024/01/23 10:20:29;;;;;;;25.40;14.90;;;;;;;4.93;67.80;97598.54;108387;1257;101953;-78
2024/01/23 10:22:58;;;;;;;23.10;13.90;;;;;;;4.92;67.98;97601.08;108286;1257;100241;-78
2024/01/23 10:25:28;;;;;;;25.50;14.90;;;;;;;4.94;67.86;97598.48;108328;1257;95556;-77
2024/01/23 10:27:57;;;;;;;24.70;15.70;;;;;;;5.03;67.83;97601.60;108386;1256;96014;-78
2024/01/23 10:30:25;;;;;;;25.80;14.70;;;;;;;5.12;67.84;97607.36;108446;1256;103443;-78
2024/01/23 10:32:53;;;;;;;25.80;14.80;;;;;;;5.17;67.87;97607.52;108417;1256;100359;-77
2024/01/23 10:35:20;;;;;;;27.90;14.80;;;;;;;5.19;67.77;97610.32;108411;1256;100053;-79
2024/01/23 10:37:51;;;;;;;26.60;15.00;;;;;;;5.19;67.58;97610.98;108404;1256;95584;-78
2024/01/23 10:40:23;;;;;;;28.70;16.80;;;;;;;5.20;67.54;97607.95;108449;1256;96175;-77
2024/01/23 10:42:51;;;;;;;26.80;15.50;;;;;;;5.19;67.42;97607.44;108458;1256;103568;-78
2024/01/23 10:45:19;;;;;;;23.80;15.10;;;;;;;5.15;67.28;97612.77;108408;1256;101674;-78
2024/01/23 10:47:47;;;;;;;27.20;14.50;;;;;;;5.14;67.28;97617.52;108397;1256;100134;-78
2024/01/23 10:50:15;;;;;;;22.20;12.60;;;;;;;5.15;67.28;97608.16;108384;1256;95627;-78
2024/01/23 10:52:49;;;;;;;22.70;13.00;;;;;;;5.15;67.22;97603.70;108456;1256;96077;-77
2024/01/23 10:55:18;;;;;;;20.90;12.80;;;;;;;5.14;67.08;97603.73;108432;1256;103747;-78
2024/01/23 10:57:47;;;;;;;22.40;12.50;;;;;;;5.16;67.12;97611.53;108428;1256;101633;-78
2024/01/23 11:00:20;;;;;;;19.50;12.20;;;;;;;5.31;67.26;97614.98;108433;1256;107802;-78
2024/01/23 11:02:58;;;;;;;21.50;11.90;;;;;;;5.46;67.21;97617.80;108383;1256;95544;-77
2024/01/23 11:05:36;;;;;;;20.40;12.30;;;;;;;5.58;66.73;97615.73;108444;1256;95874;-78
2024/01/23 11:08:26;;;;;;;19.50;11.70;;;;;;;5.59;66.25;97617.61;108441;1256;104287;-77
2024/01/23 11:11:05;;;;;;;20.10;11.30;;;;;;;5.54;66.21;97627.38;108432;1256;101613;-78
2024/01/23 11:13:41;;;;;;;20.90;11.50;;;;;;;5.45;65.80;97631.23;108411;1256;100097;-77
2024/01/23 11:16:09;;;;;;;20.50;11.40;;;;;;;5.32;65.81;97623.41;108408;1256;95809;-78
2024/01/23 11:18:37;;;;;;;20.50;12.50;;;;;;;5.28;65.97;97626.11;108474;1257;96013;-77
2024/01/23 11:21:04;;;;;;;19.90;12.80;;;;;;;5.25;66.14;97627.63;108447;1256;103765;-77
2024/01/23 11:23:32;;;;;;;21.70;13.30;;;;;;;5.23;66.13;97628.30;108422;1256;101611;-78